sensor_id;sensor_type;location;lat;lon;timestamp;P1;durP1;ratioP1;P2;durP2;ratioP2
33357;SDS011;19717;42.614;23.418;2023-03-03T00:02:25;1.23;;;1.17;;
33357;SDS011;19717;42.614;23.418;2023-03-03T00:04:53;1.30;;;1.05;;
33357;SDS011;19717;42.614;23.418;2023-03-03T00:07:20;2.72;;;1.58;;
33357;SDS011;19717;42.614;23.418;2023-03-03T00:09:47;4.18;;;2.33;;
33357;SDS011;19717;42.614;23.418;2023-03-03T00:14:42;2.00;;;1.02;;
33357;SDS011;19717;42.614;23.418;2023-03-03T00:17:14;4.63;;;1.27;;
33357;SDS011;19717;42.614;23.418;2023-03-03T00:19:41;3.50;;;1.23;;
33357;SDS011;19717;42.614;23.418;2023-03-03T00:22:13;1.00;;;0.95;;
33357;SDS011;19717;42.614;23.418;2023-03-03T00:24:42;0.63;;;0.60;;
33357;SDS011;19717;42.614;23.418;2023-03-03T00:27:16;1.85;;;0.80;;
33357;SDS011;19717;42.614;23.418;2023-03-03T00:29:45;1.13;;;0.90;;
33357;SDS011;19717;42.614;23.418;2023-03-03T00:35:00;1.33;;;1.02;;
33357;SDS011;19717;42.614;23.418;2023-03-03T00:39:58;0.98;;;0.98;;
33357;SDS011;19717;42.614;23.418;2023-03-03T00:42:25;2.40;;;1.70;;
33357;SDS011;19717;42.614;23.418;2023-03-03T00:47:27;1.70;;;1.15;;
33357;SDS011;19717;42.614;23.418;2023-03-03T00:49:55;5.68;;;1.77;;
33357;SDS011;19717;42.614;23.418;2023-03-03T00:52:24;6.45;;;3.60;;
33357;SDS011;19717;42.614;23.418;2023-03-03T00:54:55;6.32;;;3.50;;
33357;SDS011;19717;42.614;23.418;2023-03-03T00:57:21;2.92;;;1.92;;
33357;SDS011;19717;42.614;23.418;2023-03-03T00:59:47;4.45;;;1.25;;
33357;SDS011;19717;42.614;23.418;2023-03-03T01:02:13;1.85;;;1.20;;
33357;SDS011;19717;42.614;23.418;2023-03-03T01:04:39;1.65;;;1.50;;
33357;SDS011;19717;42.614;23.418;2023-03-03T01:07:06;8.35;;;2.53;;
33357;SDS011;19717;42.614;23.418;2023-03-03T01:09:32;2.15;;;1.23;;
33357;SDS011;19717;42.614;23.418;2023-03-03T01:11:58;1.13;;;0.88;;
33357;SDS011;19717;42.614;23.418;2023-03-03T01:14:25;0.93;;;0.82;;
33357;SDS011;19717;42.614;23.418;2023-03-03T01:16:51;1.30;;;1.20;;
33357;SDS011;19717;42.614;23.418;2023-03-03T01:19:17;1.42;;;0.82;;
33357;SDS011;19717;42.614;23.418;2023-03-03T01:21:43;1.23;;;0.95;;
33357;SDS011;19717;42.614;23.418;2023-03-03T01:24:09;1.98;;;1.40;;
33357;SDS011;19717;42.614;23.418;2023-03-03T01:26:35;0.98;;;0.88;;
33357;SDS011;19717;42.614;23.418;2023-03-03T01:29:01;1.20;;;0.80;;
33357;SDS011;19717;42.614;23.418;2023-03-03T01:31:27;0.60;;;0.60;;
33357;SDS011;19717;42.614;23.418;2023-03-03T01:33:53;0.73;;;0.60;;
33357;SDS011;19717;42.614;23.418;2023-03-03T01:36:23;1.42;;;0.90;;
33357;SDS011;19717;42.614;23.418;2023-03-03T01:38:49;1.75;;;0.70;;
33357;SDS011;19717;42.614;23.418;2023-03-03T01:41:15;1.52;;;1.42;;
33357;SDS011;19717;42.614;23.418;2023-03-03T01:43:43;1.75;;;1.15;;
33357;SDS011;19717;42.614;23.418;2023-03-03T01:48:47;1.33;;;1.23;;
33357;SDS011;19717;42.614;23.418;2023-03-03T01:51:22;0.65;;;0.65;;
33357;SDS011;19717;42.614;23.418;2023-03-03T01:53:49;1.90;;;0.50;;
33357;SDS011;19717;42.614;23.418;2023-03-03T01:56:16;1.30;;;1.20;;
33357;SDS011;19717;42.614;23.418;2023-03-03T01:58:46;3.65;;;1.00;;
33357;SDS011;19717;42.614;23.418;2023-03-03T02:01:14;0.80;;;0.80;;
33357;SDS011;19717;42.614;23.418;2023-03-03T02:03:42;0.90;;;0.80;;
33357;SDS011;19717;42.614;23.418;2023-03-03T02:06:09;0.65;;;0.65;;
33357;SDS011;19717;42.614;23.418;2023-03-03T02:08:53;0.70;;;0.70;;
33357;SDS011;19717;42.614;23.418;2023-03-03T02:11:20;2.90;;;2.03;;
33357;SDS011;19717;42.614;23.418;2023-03-03T02:13:46;1.02;;;0.60;;
33357;SDS011;19717;42.614;23.418;2023-03-03T02:16:12;2.60;;;1.25;;
33357;SDS011;19717;42.614;23.418;2023-03-03T02:18:39;3.58;;;1.33;;
33357;SDS011;19717;42.614;23.418;2023-03-03T02:26:16;0.80;;;0.80;;
33357;SDS011;19717;42.614;23.418;2023-03-03T02:28:43;0.65;;;0.50;;
33357;SDS011;19717;42.614;23.418;2023-03-03T02:31:11;1.00;;;1.00;;
33357;SDS011;19717;42.614;23.418;2023-03-03T02:33:40;0.73;;;0.73;;
33357;SDS011;19717;42.614;23.418;2023-03-03T02:36:08;2.55;;;1.33;;
33357;SDS011;19717;42.614;23.418;2023-03-03T02:43:32;1.30;;;1.27;;
33357;SDS011;19717;42.614;23.418;2023-03-03T02:46:02;0.70;;;0.70;;
33357;SDS011;19717;42.614;23.418;2023-03-03T02:48:28;1.05;;;1.05;;
33357;SDS011;19717;42.614;23.418;2023-03-03T02:50:54;1.67;;;0.80;;
33357;SDS011;19717;42.614;23.418;2023-03-03T02:53:20;0.70;;;0.70;;
33357;SDS011;19717;42.614;23.418;2023-03-03T02:55:46;0.93;;;0.88;;
33357;SDS011;19717;42.614;23.418;2023-03-03T02:58:12;0.80;;;0.80;;
33357;SDS011;19717;42.614;23.418;2023-03-03T03:00:38;2.10;;;1.25;;
33357;SDS011;19717;42.614;23.418;2023-03-03T03:03:04;1.33;;;1.23;;
33357;SDS011;19717;42.614;23.418;2023-03-03T03:05:30;1.45;;;1.25;;
33357;SDS011;19717;42.614;23.418;2023-03-03T03:07:56;1.98;;;1.23;;
33357;SDS011;19717;42.614;23.418;2023-03-03T03:10:22;1.85;;;1.38;;
33357;SDS011;19717;42.614;23.418;2023-03-03T03:12:48;1.30;;;0.95;;
33357;SDS011;19717;42.614;23.418;2023-03-03T03:15:14;1.70;;;1.60;;
33357;SDS011;19717;42.614;23.418;2023-03-03T03:17:40;1.48;;;0.88;;
33357;SDS011;19717;42.614;23.418;2023-03-03T03:20:07;2.30;;;1.95;;
33357;SDS011;19717;42.614;23.418;2023-03-03T03:22:33;1.00;;;0.70;;
33357;SDS011;19717;42.614;23.418;2023-03-03T03:24:59;2.50;;;1.10;;
33357;SDS011;19717;42.614;23.418;2023-03-03T03:27:26;3.78;;;1.25;;
33357;SDS011;19717;42.614;23.418;2023-03-03T03:29:52;1.77;;;1.00;;
33357;SDS011;19717;42.614;23.418;2023-03-03T03:32:18;0.75;;;0.75;;
33357;SDS011;19717;42.614;23.418;2023-03-03T03:34:44;10.40;;;4.35;;
33357;SDS011;19717;42.614;23.418;2023-03-03T03:37:10;4.65;;;3.35;;
33357;SDS011;19717;42.614;23.418;2023-03-03T03:39:36;2.53;;;2.17;;
33357;SDS011;19717;42.614;23.418;2023-03-03T03:42:02;2.90;;;2.53;;
33357;SDS011;19717;42.614;23.418;2023-03-03T03:44:28;1.65;;;1.27;;
33357;SDS011;19717;42.614;23.418;2023-03-03T03:46:54;6.10;;;2.78;;
33357;SDS011;19717;42.614;23.418;2023-03-03T03:49:20;3.47;;;2.15;;
33357;SDS011;19717;42.614;23.418;2023-03-03T03:51:46;5.93;;;2.65;;
33357;SDS011;19717;42.614;23.418;2023-03-03T03:54:13;1.20;;;0.90;;
33357;SDS011;19717;42.614;23.418;2023-03-03T03:56:39;1.48;;;1.40;;
33357;SDS011;19717;42.614;23.418;2023-03-03T03:59:05;1.48;;;1.17;;
33357;SDS011;19717;42.614;23.418;2023-03-03T04:01:31;2.78;;;1.33;;
33357;SDS011;19717;42.614;23.418;2023-03-03T04:03:58;0.82;;;0.82;;
33357;SDS011;19717;42.614;23.418;2023-03-03T04:06:24;2.22;;;1.50;;
33357;SDS011;19717;42.614;23.418;2023-03-03T04:08:50;1.58;;;1.45;;
33357;SDS011;19717;42.614;23.418;2023-03-03T04:11:16;2.05;;;1.25;;
33357;SDS011;19717;42.614;23.418;2023-03-03T04:13:42;1.35;;;1.20;;
33357;SDS011;19717;42.614;23.418;2023-03-03T04:16:08;2.60;;;1.58;;
33357;SDS011;19717;42.614;23.418;2023-03-03T04:18:34;1.50;;;1.30;;
33357;SDS011;19717;42.614;23.418;2023-03-03T04:21:00;1.80;;;1.33;;
33357;SDS011;19717;42.614;23.418;2023-03-03T04:23:26;1.35;;;1.35;;
33357;SDS011;19717;42.614;23.418;2023-03-03T04:25:52;0.98;;;0.98;;
33357;SDS011;19717;42.614;23.418;2023-03-03T04:28:18;1.02;;;0.93;;
33357;SDS011;19717;42.614;23.418;2023-03-03T04:30:45;5.93;;;1.13;;
33357;SDS011;19717;42.614;23.418;2023-03-03T04:33:12;0.60;;;0.60;;
33357;SDS011;19717;42.614;23.418;2023-03-03T04:35:38;0.73;;;0.73;;
33357;SDS011;19717;42.614;23.418;2023-03-03T04:38:04;1.55;;;1.27;;
33357;SDS011;19717;42.614;23.418;2023-03-03T04:40:30;1.50;;;0.82;;
33357;SDS011;19717;42.614;23.418;2023-03-03T04:42:56;1.02;;;0.93;;
33357;SDS011;19717;42.614;23.418;2023-03-03T04:45:22;0.98;;;0.82;;
33357;SDS011;19717;42.614;23.418;2023-03-03T04:47:48;0.73;;;0.73;;
33357;SDS011;19717;42.614;23.418;2023-03-03T04:50:14;0.68;;;0.68;;
33357;SDS011;19717;42.614;23.418;2023-03-03T04:52:40;0.88;;;0.88;;
33357;SDS011;19717;42.614;23.418;2023-03-03T04:55:06;1.85;;;1.20;;
33357;SDS011;19717;42.614;23.418;2023-03-03T04:57:33;5.07;;;1.70;;
33357;SDS011;19717;42.614;23.418;2023-03-03T04:59:59;1.50;;;1.40;;
33357;SDS011;19717;42.614;23.418;2023-03-03T05:02:25;2.30;;;1.88;;
33357;SDS011;19717;42.614;23.418;2023-03-03T05:04:51;3.40;;;1.75;;
33357;SDS011;19717;42.614;23.418;2023-03-03T05:07:17;3.05;;;1.88;;
33357;SDS011;19717;42.614;23.418;2023-03-03T05:09:44;1.83;;;1.73;;
33357;SDS011;19717;42.614;23.418;2023-03-03T05:12:10;4.90;;;1.83;;
33357;SDS011;19717;42.614;23.418;2023-03-03T05:14:37;4.45;;;1.10;;
33357;SDS011;19717;42.614;23.418;2023-03-03T05:17:03;1.33;;;1.20;;
33357;SDS011;19717;42.614;23.418;2023-03-03T05:19:30;3.38;;;1.38;;
33357;SDS011;19717;42.614;23.418;2023-03-03T05:21:56;1.48;;;1.33;;
33357;SDS011;19717;42.614;23.418;2023-03-03T05:24:22;2.92;;;1.58;;
33357;SDS011;19717;42.614;23.418;2023-03-03T05:26:48;1.42;;;1.27;;
33357;SDS011;19717;42.614;23.418;2023-03-03T05:29:14;1.05;;;1.00;;
33357;SDS011;19717;42.614;23.418;2023-03-03T05:31:41;2.42;;;1.35;;
33357;SDS011;19717;42.614;23.418;2023-03-03T05:34:07;6.63;;;2.08;;
33357;SDS011;19717;42.614;23.418;2023-03-03T05:36:33;3.58;;;1.55;;
33357;SDS011;19717;42.614;23.418;2023-03-03T05:38:59;2.08;;;1.58;;
33357;SDS011;19717;42.614;23.418;2023-03-03T05:41:25;3.90;;;2.20;;
33357;SDS011;19717;42.614;23.418;2023-03-03T05:43:51;2.17;;;1.20;;
33357;SDS011;19717;42.614;23.418;2023-03-03T05:46:17;1.05;;;1.00;;
33357;SDS011;19717;42.614;23.418;2023-03-03T05:48:43;1.00;;;1.00;;
33357;SDS011;19717;42.614;23.418;2023-03-03T05:51:10;1.38;;;1.27;;
33357;SDS011;19717;42.614;23.418;2023-03-03T05:53:36;1.67;;;1.52;;
33357;SDS011;19717;42.614;23.418;2023-03-03T05:56:02;1.35;;;1.25;;
33357;SDS011;19717;42.614;23.418;2023-03-03T05:58:28;3.50;;;1.67;;
33357;SDS011;19717;42.614;23.418;2023-03-03T06:00:54;5.43;;;2.75;;
33357;SDS011;19717;42.614;23.418;2023-03-03T06:03:20;1.75;;;1.38;;
33357;SDS011;19717;42.614;23.418;2023-03-03T06:05:46;0.70;;;0.70;;
33357;SDS011;19717;42.614;23.418;2023-03-03T06:08:12;4.05;;;1.75;;
33357;SDS011;19717;42.614;23.418;2023-03-03T06:10:38;2.28;;;1.77;;
33357;SDS011;19717;42.614;23.418;2023-03-03T06:13:04;1.52;;;1.42;;
33357;SDS011;19717;42.614;23.418;2023-03-03T06:15:30;3.20;;;2.13;;
33357;SDS011;19717;42.614;23.418;2023-03-03T06:17:57;2.97;;;1.98;;
33357;SDS011;19717;42.614;23.418;2023-03-03T06:20:23;2.45;;;1.77;;
33357;SDS011;19717;42.614;23.418;2023-03-03T06:22:49;3.08;;;1.98;;
33357;SDS011;19717;42.614;23.418;2023-03-03T06:25:15;1.33;;;1.10;;
33357;SDS011;19717;42.614;23.418;2023-03-03T06:27:41;2.17;;;1.55;;
33357;SDS011;19717;42.614;23.418;2023-03-03T06:30:07;2.45;;;2.00;;
33357;SDS011;19717;42.614;23.418;2023-03-03T06:32:33;4.93;;;1.80;;
33357;SDS011;19717;42.614;23.418;2023-03-03T06:35:00;2.33;;;1.88;;
33357;SDS011;19717;42.614;23.418;2023-03-03T06:37:26;1.60;;;1.20;;
33357;SDS011;19717;42.614;23.418;2023-03-03T06:39:52;2.00;;;1.85;;
33357;SDS011;19717;42.614;23.418;2023-03-03T06:42:18;1.42;;;1.33;;
33357;SDS011;19717;42.614;23.418;2023-03-03T06:44:45;2.50;;;1.52;;
33357;SDS011;19717;42.614;23.418;2023-03-03T06:47:11;1.70;;;1.58;;
33357;SDS011;19717;42.614;23.418;2023-03-03T06:49:37;2.38;;;1.65;;
33357;SDS011;19717;42.614;23.418;2023-03-03T06:52:17;1.90;;;1.65;;
33357;SDS011;19717;42.614;23.418;2023-03-03T06:54:44;2.45;;;2.25;;
33357;SDS011;19717;42.614;23.418;2023-03-03T06:57:15;1.45;;;1.20;;
33357;SDS011;19717;42.614;23.418;2023-03-03T06:59:41;1.45;;;1.35;;
33357;SDS011;19717;42.614;23.418;2023-03-03T07:02:12;1.90;;;1.02;;
33357;SDS011;19717;42.614;23.418;2023-03-03T07:04:39;8.57;;;2.20;;
33357;SDS011;19717;42.614;23.418;2023-03-03T07:07:19;2.90;;;1.85;;
33357;SDS011;19717;42.614;23.418;2023-03-03T07:09:46;0.95;;;0.95;;
33357;SDS011;19717;42.614;23.418;2023-03-03T07:12:15;3.30;;;1.40;;
33357;SDS011;19717;42.614;23.418;2023-03-03T07:14:44;1.65;;;1.35;;
33357;SDS011;19717;42.614;23.418;2023-03-03T07:17:14;2.38;;;1.75;;
33357;SDS011;19717;42.614;23.418;2023-03-03T07:19:41;4.40;;;1.25;;
33357;SDS011;19717;42.614;23.418;2023-03-03T07:22:13;1.52;;;1.42;;
33357;SDS011;19717;42.614;23.418;2023-03-03T07:24:39;2.83;;;1.58;;
33357;SDS011;19717;42.614;23.418;2023-03-03T07:29:35;3.38;;;2.78;;
33357;SDS011;19717;42.614;23.418;2023-03-03T07:32:05;8.80;;;4.80;;
33357;SDS011;19717;42.614;23.418;2023-03-03T07:34:43;7.22;;;3.10;;
33357;SDS011;19717;42.614;23.418;2023-03-03T07:37:20;4.43;;;3.95;;
33357;SDS011;19717;42.614;23.418;2023-03-03T07:39:47;2.70;;;2.10;;
33357;SDS011;19717;42.614;23.418;2023-03-03T07:44:41;3.40;;;2.30;;
33357;SDS011;19717;42.614;23.418;2023-03-03T07:49:40;4.43;;;2.33;;
33357;SDS011;19717;42.614;23.418;2023-03-03T07:55:19;2.08;;;1.85;;
33357;SDS011;19717;42.614;23.418;2023-03-03T07:57:47;2.60;;;1.77;;
33357;SDS011;19717;42.614;23.418;2023-03-03T08:02:44;3.00;;;2.17;;
33357;SDS011;19717;42.614;23.418;2023-03-03T08:13:37;3.75;;;2.60;;
33357;SDS011;19717;42.614;23.418;2023-03-03T08:20:52;2.03;;;1.42;;
33357;SDS011;19717;42.614;23.418;2023-03-03T08:23:19;3.40;;;1.40;;
33357;SDS011;19717;42.614;23.418;2023-03-03T08:25:46;2.42;;;1.67;;
33357;SDS011;19717;42.614;23.418;2023-03-03T08:28:12;4.13;;;2.08;;
33357;SDS011;19717;42.614;23.418;2023-03-03T08:30:39;2.35;;;2.15;;
33357;SDS011;19717;42.614;23.418;2023-03-03T08:33:05;7.25;;;3.35;;
33357;SDS011;19717;42.614;23.418;2023-03-03T08:35:31;1.42;;;1.33;;
33357;SDS011;19717;42.614;23.418;2023-03-03T08:37:57;7.22;;;2.08;;
33357;SDS011;19717;42.614;23.418;2023-03-03T08:40:24;2.08;;;1.95;;
33357;SDS011;19717;42.614;23.418;2023-03-03T08:42:50;1.92;;;1.73;;
33357;SDS011;19717;42.614;23.418;2023-03-03T08:45:16;4.07;;;2.92;;
33357;SDS011;19717;42.614;23.418;2023-03-03T08:47:42;3.15;;;1.70;;
33357;SDS011;19717;42.614;23.418;2023-03-03T08:50:09;5.00;;;2.65;;
33357;SDS011;19717;42.614;23.418;2023-03-03T08:52:35;4.78;;;2.10;;
33357;SDS011;19717;42.614;23.418;2023-03-03T08:55:02;2.63;;;2.05;;
33357;SDS011;19717;42.614;23.418;2023-03-03T08:57:28;1.92;;;1.77;;
33357;SDS011;19717;42.614;23.418;2023-03-03T08:59:54;2.20;;;1.85;;
33357;SDS011;19717;42.614;23.418;2023-03-03T09:02:20;4.35;;;2.03;;
33357;SDS011;19717;42.614;23.418;2023-03-03T09:04:46;3.35;;;1.95;;
33357;SDS011;19717;42.614;23.418;2023-03-03T09:07:12;3.85;;;0.93;;
33357;SDS011;19717;42.614;23.418;2023-03-03T09:09:38;2.45;;;1.80;;
33357;SDS011;19717;42.614;23.418;2023-03-03T09:12:18;2.22;;;1.98;;
33357;SDS011;19717;42.614;23.418;2023-03-03T09:14:46;1.67;;;1.58;;
33357;SDS011;19717;42.614;23.418;2023-03-03T09:17:22;4.05;;;1.63;;
33357;SDS011;19717;42.614;23.418;2023-03-03T09:19:49;3.13;;;2.15;;
33357;SDS011;19717;42.614;23.418;2023-03-03T09:22:23;1.75;;;1.65;;
33357;SDS011;19717;42.614;23.418;2023-03-03T09:24:51;1.67;;;1.58;;
33357;SDS011;19717;42.614;23.418;2023-03-03T09:27:27;1.83;;;1.48;;
33357;SDS011;19717;42.614;23.418;2023-03-03T09:29:54;2.35;;;1.70;;
33357;SDS011;19717;42.614;23.418;2023-03-03T09:32:25;5.50;;;2.42;;
33357;SDS011;19717;42.614;23.418;2023-03-03T09:34:53;1.40;;;1.25;;
33357;SDS011;19717;42.614;23.418;2023-03-03T09:39:47;2.08;;;1.67;;
33357;SDS011;19717;42.614;23.418;2023-03-03T09:55:25;2.22;;;2.10;;
33357;SDS011;19717;42.614;23.418;2023-03-03T10:06:21;3.28;;;2.53;;
33357;SDS011;19717;42.614;23.418;2023-03-03T10:16:43;7.85;;;2.67;;
33357;SDS011;19717;42.614;23.418;2023-03-03T10:19:28;2.55;;;1.92;;
33357;SDS011;19717;42.614;23.418;2023-03-03T10:22:01;3.17;;;1.33;;
33357;SDS011;19717;42.614;23.418;2023-03-03T10:24:41;2.25;;;1.70;;
33357;SDS011;19717;42.614;23.418;2023-03-03T10:43:01;5.10;;;2.25;;
33357;SDS011;19717;42.614;23.418;2023-03-03T10:53:17;3.05;;;1.63;;
33357;SDS011;19717;42.614;23.418;2023-03-03T11:11:18;1.90;;;1.77;;
33357;SDS011;19717;42.614;23.418;2023-03-03T11:26:34;7.93;;;2.38;;
33357;SDS011;19717;42.614;23.418;2023-03-03T11:33:59;9.63;;;3.17;;
33357;SDS011;19717;42.614;23.418;2023-03-03T11:36:30;3.85;;;2.55;;
33357;SDS011;19717;42.614;23.418;2023-03-03T11:38:59;3.03;;;2.72;;
33357;SDS011;19717;42.614;23.418;2023-03-03T11:41:49;7.07;;;2.72;;
33357;SDS011;19717;42.614;23.418;2023-03-03T12:02:44;3.83;;;1.98;;
33357;SDS011;19717;42.614;23.418;2023-03-03T12:12:35;3.83;;;2.38;;
33357;SDS011;19717;42.614;23.418;2023-03-03T12:23:07;10.68;;;2.92;;
33357;SDS011;19717;42.614;23.418;2023-03-03T12:41:07;3.78;;;2.28;;
33357;SDS011;19717;42.614;23.418;2023-03-03T12:44:17;3.17;;;2.38;;
33357;SDS011;19717;42.614;23.418;2023-03-03T12:48:49;2.50;;;2.30;;
33357;SDS011;19717;42.614;23.418;2023-03-03T13:04:39;5.43;;;4.03;;
33357;SDS011;19717;42.614;23.418;2023-03-03T13:12:33;3.42;;;2.78;;
33357;SDS011;19717;42.614;23.418;2023-03-03T13:15:14;4.03;;;2.95;;
33357;SDS011;19717;42.614;23.418;2023-03-03T13:18:24;4.95;;;3.35;;
33357;SDS011;19717;42.614;23.418;2023-03-03T13:20:36;8.57;;;4.15;;
33357;SDS011;19717;42.614;23.418;2023-03-03T13:25:52;5.85;;;3.88;;
33357;SDS011;19717;42.614;23.418;2023-03-03T13:28:24;8.57;;;3.90;;
33357;SDS011;19717;42.614;23.418;2023-03-03T13:30:57;9.48;;;3.60;;
33357;SDS011;19717;42.614;23.418;2023-03-03T13:33:27;5.82;;;3.78;;
33357;SDS011;19717;42.614;23.418;2023-03-03T13:38:28;5.80;;;2.92;;
33357;SDS011;19717;42.614;23.418;2023-03-03T13:43:35;2.58;;;2.20;;
33357;SDS011;19717;42.614;23.418;2023-03-03T13:54:25;5.93;;;4.00;;
33357;SDS011;19717;42.614;23.418;2023-03-03T13:59:44;8.95;;;3.80;;
33357;SDS011;19717;42.614;23.418;2023-03-03T14:09:59;5.32;;;3.55;;
33357;SDS011;19717;42.614;23.418;2023-03-03T14:14:58;6.25;;;4.30;;
33357;SDS011;19717;42.614;23.418;2023-03-03T14:17:39;3.42;;;3.13;;
33357;SDS011;19717;42.614;23.418;2023-03-03T14:20:23;4.85;;;3.42;;
33357;SDS011;19717;42.614;23.418;2023-03-03T14:22:56;4.25;;;2.65;;
33357;SDS011;19717;42.614;23.418;2023-03-03T14:25:22;3.58;;;2.83;;
33357;SDS011;19717;42.614;23.418;2023-03-03T14:28:03;3.03;;;2.33;;
33357;SDS011;19717;42.614;23.418;2023-03-03T14:30:38;8.55;;;3.83;;
33357;SDS011;19717;42.614;23.418;2023-03-03T14:40:39;3.47;;;2.55;;
33357;SDS011;19717;42.614;23.418;2023-03-03T14:43:23;7.07;;;2.38;;
33357;SDS011;19717;42.614;23.418;2023-03-03T14:45:50;3.92;;;3.42;;
33357;SDS011;19717;42.614;23.418;2023-03-03T14:48:21;6.82;;;3.78;;
33357;SDS011;19717;42.614;23.418;2023-03-03T14:53:37;7.25;;;3.72;;
33357;SDS011;19717;42.614;23.418;2023-03-03T14:56:36;8.32;;;4.22;;
33357;SDS011;19717;42.614;23.418;2023-03-03T15:01:40;17.30;;;5.93;;
33357;SDS011;19717;42.614;23.418;2023-03-03T15:04:25;60.72;;;21.38;;
33357;SDS011;19717;42.614;23.418;2023-03-03T15:06:53;47.63;;;18.13;;
33357;SDS011;19717;42.614;23.418;2023-03-03T15:11:45;9.18;;;5.40;;
33357;SDS011;19717;42.614;23.418;2023-03-03T15:14:13;9.00;;;5.70;;
33357;SDS011;19717;42.614;23.418;2023-03-03T15:16:40;6.47;;;3.45;;
33357;SDS011;19717;42.614;23.418;2023-03-03T15:21:58;3.15;;;2.53;;
33357;SDS011;19717;42.614;23.418;2023-03-03T15:24:35;4.57;;;3.10;;
33357;SDS011;19717;42.614;23.418;2023-03-03T15:27:36;6.22;;;3.67;;
33357;SDS011;19717;42.614;23.418;2023-03-03T15:48:05;8.02;;;3.42;;
33357;SDS011;19717;42.614;23.418;2023-03-03T15:53:25;5.78;;;3.33;;
33357;SDS011;19717;42.614;23.418;2023-03-03T16:03:20;3.58;;;3.22;;
33357;SDS011;19717;42.614;23.418;2023-03-03T16:13:59;5.15;;;2.55;;
33357;SDS011;19717;42.614;23.418;2023-03-03T16:31:35;8.27;;;6.13;;
33357;SDS011;19717;42.614;23.418;2023-03-03T16:36:35;10.75;;;4.68;;
33357;SDS011;19717;42.614;23.418;2023-03-03T16:39:22;7.47;;;3.92;;
33357;SDS011;19717;42.614;23.418;2023-03-03T16:42:10;14.80;;;4.10;;
33357;SDS011;19717;42.614;23.418;2023-03-03T16:47:36;8.00;;;3.78;;
33357;SDS011;19717;42.614;23.418;2023-03-03T16:55:31;7.63;;;4.20;;
33357;SDS011;19717;42.614;23.418;2023-03-03T17:00:29;6.45;;;4.03;;
33357;SDS011;19717;42.614;23.418;2023-03-03T17:08:15;6.13;;;3.47;;
33357;SDS011;19717;42.614;23.418;2023-03-03T17:18:22;4.95;;;3.55;;
33357;SDS011;19717;42.614;23.418;2023-03-03T17:20:58;3.85;;;3.40;;
33357;SDS011;19717;42.614;23.418;2023-03-03T17:23:40;7.70;;;3.10;;
33357;SDS011;19717;42.614;23.418;2023-03-03T17:31:35;6.00;;;2.88;;
33357;SDS011;19717;42.614;23.418;2023-03-03T17:34:13;10.75;;;4.30;;
33357;SDS011;19717;42.614;23.418;2023-03-03T17:39:11;7.20;;;3.78;;
33357;SDS011;19717;42.614;23.418;2023-03-03T17:46:59;8.18;;;3.75;;
33357;SDS011;19717;42.614;23.418;2023-03-03T18:07:37;22.73;;;5.78;;
33357;SDS011;19717;42.614;23.418;2023-03-03T18:15:20;10.90;;;5.55;;
33357;SDS011;19717;42.614;23.418;2023-03-03T18:29:04;12.13;;;7.15;;
33357;SDS011;19717;42.614;23.418;2023-03-03T18:31:31;11.82;;;5.60;;
33357;SDS011;19717;42.614;23.418;2023-03-03T18:34:10;11.82;;;5.88;;
33357;SDS011;19717;42.614;23.418;2023-03-03T18:36:58;13.85;;;4.55;;
33357;SDS011;19717;42.614;23.418;2023-03-03T18:44:42;4.13;;;3.10;;
33357;SDS011;19717;42.614;23.418;2023-03-03T18:47:09;8.65;;;4.72;;
33357;SDS011;19717;42.614;23.418;2023-03-03T18:52:27;7.70;;;3.00;;
33357;SDS011;19717;42.614;23.418;2023-03-03T18:57:25;4.68;;;2.67;;
33357;SDS011;19717;42.614;23.418;2023-03-03T19:02:36;3.00;;;2.75;;
33357;SDS011;19717;42.614;23.418;2023-03-03T19:10:51;5.65;;;3.72;;
33357;SDS011;19717;42.614;23.418;2023-03-03T19:12:52;5.63;;;3.58;;
33357;SDS011;19717;42.614;23.418;2023-03-03T19:20:24;24.75;;;7.13;;
33357;SDS011;19717;42.614;23.418;2023-03-03T19:22:52;9.07;;;4.60;;
33357;SDS011;19717;42.614;23.418;2023-03-03T19:25:26;8.05;;;2.88;;
33357;SDS011;19717;42.614;23.418;2023-03-03T19:48:47;3.47;;;2.75;;
33357;SDS011;19717;42.614;23.418;2023-03-03T19:57:10;8.27;;;4.95;;
33357;SDS011;19717;42.614;23.418;2023-03-03T20:07:26;11.27;;;5.80;;
33357;SDS011;19717;42.614;23.418;2023-03-03T20:15:31;5.88;;;4.60;;
33357;SDS011;19717;42.614;23.418;2023-03-03T20:20:42;7.15;;;4.18;;
33357;SDS011;19717;42.614;23.418;2023-03-03T20:36:16;4.97;;;3.42;;
33357;SDS011;19717;42.614;23.418;2023-03-03T20:38:54;4.57;;;3.75;;
33357;SDS011;19717;42.614;23.418;2023-03-03T20:41:29;14.82;;;6.53;;
33357;SDS011;19717;42.614;23.418;2023-03-03T20:56:37;5.20;;;3.95;;
33357;SDS011;19717;42.614;23.418;2023-03-03T21:06:53;7.78;;;6.55;;
33357;SDS011;19717;42.614;23.418;2023-03-03T21:11:58;5.05;;;4.20;;
33357;SDS011;19717;42.614;23.418;2023-03-03T21:14:26;10.40;;;4.95;;
33357;SDS011;19717;42.614;23.418;2023-03-03T21:16:53;9.63;;;5.15;;
33357;SDS011;19717;42.614;23.418;2023-03-03T21:19:30;4.50;;;4.00;;
33357;SDS011;19717;42.614;23.418;2023-03-03T21:21:57;10.73;;;6.85;;
33357;SDS011;19717;42.614;23.418;2023-03-03T21:27:22;11.50;;;4.78;;
33357;SDS011;19717;42.614;23.418;2023-03-03T21:29:51;10.55;;;5.18;;
33357;SDS011;19717;42.614;23.418;2023-03-03T21:32:42;9.38;;;3.30;;
33357;SDS011;19717;42.614;23.418;2023-03-03T21:38:08;6.57;;;4.10;;
33357;SDS011;19717;42.614;23.418;2023-03-03T21:40:28;9.52;;;3.05;;
33357;SDS011;19717;42.614;23.418;2023-03-03T21:42:56;3.70;;;2.97;;
33357;SDS011;19717;42.614;23.418;2023-03-03T21:45:22;5.43;;;3.25;;
33357;SDS011;19717;42.614;23.418;2023-03-03T21:47:49;4.07;;;3.75;;
33357;SDS011;19717;42.614;23.418;2023-03-03T21:50:16;5.97;;;4.30;;
33357;SDS011;19717;42.614;23.418;2023-03-03T21:52:45;4.78;;;3.63;;
33357;SDS011;19717;42.614;23.418;2023-03-03T21:55:11;8.32;;;4.97;;
33357;SDS011;19717;42.614;23.418;2023-03-03T21:57:37;13.65;;;5.82;;
33357;SDS011;19717;42.614;23.418;2023-03-03T22:00:04;16.10;;;7.97;;
33357;SDS011;19717;42.614;23.418;2023-03-03T22:02:30;11.88;;;5.18;;
33357;SDS011;19717;42.614;23.418;2023-03-03T22:04:56;8.77;;;4.25;;
33357;SDS011;19717;42.614;23.418;2023-03-03T22:07:23;8.82;;;5.00;;
33357;SDS011;19717;42.614;23.418;2023-03-03T22:09:49;7.63;;;5.05;;
33357;SDS011;19717;42.614;23.418;2023-03-03T22:12:15;8.43;;;4.43;;
33357;SDS011;19717;42.614;23.418;2023-03-03T22:14:41;5.97;;;3.30;;
33357;SDS011;19717;42.614;23.418;2023-03-03T22:17:07;7.20;;;4.28;;
33357;SDS011;19717;42.614;23.418;2023-03-03T22:19:34;3.15;;;2.85;;
33357;SDS011;19717;42.614;23.418;2023-03-03T22:22:02;4.78;;;2.83;;
33357;SDS011;19717;42.614;23.418;2023-03-03T22:24:28;6.35;;;3.70;;
33357;SDS011;19717;42.614;23.418;2023-03-03T22:26:54;8.75;;;3.28;;
33357;SDS011;19717;42.614;23.418;2023-03-03T22:29:20;3.95;;;2.40;;
33357;SDS011;19717;42.614;23.418;2023-03-03T22:31:47;3.10;;;2.53;;
33357;SDS011;19717;42.614;23.418;2023-03-03T22:34:14;1.98;;;1.88;;
33357;SDS011;19717;42.614;23.418;2023-03-03T22:36:40;2.13;;;1.90;;
33357;SDS011;19717;42.614;23.418;2023-03-03T22:39:06;2.45;;;2.13;;
33357;SDS011;19717;42.614;23.418;2023-03-03T22:41:32;3.88;;;2.13;;
33357;SDS011;19717;42.614;23.418;2023-03-03T22:43:58;4.35;;;2.88;;
33357;SDS011;19717;42.614;23.418;2023-03-03T22:46:24;5.35;;;3.97;;
33357;SDS011;19717;42.614;23.418;2023-03-03T22:48:50;6.00;;;2.42;;
33357;SDS011;19717;42.614;23.418;2023-03-03T22:51:16;4.03;;;2.38;;
33357;SDS011;19717;42.614;23.418;2023-03-03T22:53:45;5.35;;;2.72;;